createdAt,value
2019-02-19T00:02:50.861Z,19.34
2019-02-19T00:07:51.623Z,20.19
2019-02-19T00:12:52.672Z,21.18
2019-02-19T00:17:52.653Z,23.15
2019-02-19T00:23:02.347Z,24.26
2019-02-19T00:28:10.796Z,21.68
2019-02-19T00:33:21.686Z,20.83
2019-02-19T00:38:21.409Z,21.77
2019-02-19T00:43:31.473Z,27.75
2019-02-19T00:48:42.821Z,28.03
2019-02-19T00:53:43.572Z,25.15
2019-02-19T00:58:44.071Z,23.23
2019-02-19T01:03:46.715Z,26.40
2019-02-19T01:08:47.118Z,24.36
2019-02-19T01:13:45.904Z,23.12
2019-02-19T01:18:55.711Z,24.38
2019-02-19T01:24:04.490Z,27.77
2019-02-19T01:29:15.675Z,25.68
2019-02-19T01:34:28.592Z,28.42
2019-02-19T01:44:25.411Z,25.34
2019-02-19T01:49:29.161Z,28.80
2019-02-19T01:54:28.079Z,26.51
2019-02-19T01:59:38.555Z,24.63
2019-02-19T02:04:43.333Z,24.16
2019-02-19T02:09:43.294Z,24.88
2019-02-19T02:14:51.595Z,26.60
2019-02-19T02:19:51.005Z,26.86
2019-02-19T02:25:03.529Z,24.39
2019-02-19T02:30:04.398Z,23.80
2019-02-19T02:35:05.608Z,24.24
2019-02-19T02:40:08.057Z,24.58
2019-02-19T02:45:15.717Z,26.38
2019-02-19T02:50:23.024Z,49.85
2019-02-19T02:55:32.168Z,52.25
2019-02-19T03:00:45.394Z,26.45
2019-02-19T03:05:44.142Z,28.62
2019-02-19T03:10:54.741Z,32.25
2019-02-19T03:16:02.478Z,35.89
2019-02-19T03:20:51.025Z,25.87
2019-02-19T03:25:54.127Z,24.14
2019-02-19T03:30:58.544Z,26.10
2019-02-19T03:35:57.050Z,25.28
2019-02-19T03:41:10.558Z,25.25
2019-02-19T03:46:12.547Z,24.92
2019-02-19T03:51:12.899Z,23.92
2019-02-19T03:56:13.246Z,24.53
2019-02-19T04:01:13.163Z,24.92
2019-02-19T04:06:14.911Z,25.16
2019-02-19T04:11:24.365Z,25.26
2019-02-19T04:16:24.394Z,25.62
2019-02-19T04:21:34.887Z,24.81
2019-02-19T04:26:38.478Z,26.02
2019-02-19T04:31:40.433Z,24.54
2019-02-19T04:36:45.998Z,23.55
2019-02-19T04:41:49.155Z,23.90
2019-02-19T04:46:52.456Z,23.55
2019-02-19T04:51:55.478Z,24.79
2019-02-19T04:56:54.146Z,24.35
2019-02-19T05:02:16.105Z,24.94
2019-02-19T05:07:04.909Z,24.75
2019-02-19T05:12:15.378Z,24.89
2019-02-19T05:17:16.269Z,23.85
2019-02-19T05:22:23.829Z,23.48
2019-02-19T05:27:33.503Z,23.69
2019-02-19T05:32:55.361Z,24.00
2019-02-19T05:37:52.717Z,24.55
2019-02-19T05:42:57.567Z,23.42
2019-02-19T05:47:57.484Z,22.90
2019-02-19T05:53:01.301Z,23.60
2019-02-19T05:58:00.398Z,23.09
2019-02-19T06:03:03.533Z,21.82
2019-02-19T06:08:02.577Z,22.94
2019-02-19T06:13:15.684Z,22.25
2019-02-19T06:18:04.321Z,22.53
2019-02-19T06:23:08.722Z,22.46
2019-02-19T06:28:08.658Z,22.37
2019-02-19T06:33:14.669Z,23.25
2019-02-19T06:38:13.919Z,23.17
2019-02-19T06:43:16.742Z,23.31
2019-02-19T06:48:18.373Z,22.90
2019-02-19T06:53:20.046Z,23.24
2019-02-19T06:58:19.696Z,24.33
2019-02-19T07:03:28.880Z,22.59
2019-02-19T07:08:41.689Z,22.22
2019-02-19T07:13:45.098Z,24.88
2019-02-19T07:18:49.752Z,22.07
2019-02-19T07:24:04.467Z,21.49
2019-02-19T07:28:57.942Z,23.02
2019-02-19T07:34:24.313Z,22.69
2019-02-19T07:39:14.667Z,22.93
2019-02-19T07:44:26.853Z,22.40
2019-02-19T07:49:14.629Z,23.84
2019-02-19T07:54:33.404Z,22.76
2019-02-19T07:59:31.767Z,23.06
2019-02-19T08:04:47.549Z,23.74
2019-02-19T08:09:49.612Z,23.79
2019-02-19T08:14:53.016Z,23.29
2019-02-19T08:20:15.308Z,23.21
2019-02-19T08:25:01.041Z,23.04
2019-02-19T08:30:01.542Z,24.25
2019-02-19T08:35:12.896Z,22.62
2019-02-19T08:40:21.664Z,22.55
2019-02-19T08:45:35.657Z,23.31
2019-02-19T08:50:32.607Z,23.84
2019-02-19T08:55:42.300Z,23.31
2019-02-19T09:00:53.274Z,24.44
2019-02-19T09:05:51.529Z,25.19
2019-02-19T09:11:08.942Z,24.85
2019-02-19T09:16:08.459Z,24.69
2019-02-19T09:21:10.994Z,24.18
2019-02-19T09:26:14.953Z,24.03
2019-02-19T09:31:25.616Z,24.33
2019-02-19T09:36:19.526Z,24.32
2019-02-19T09:41:23.216Z,23.79
2019-02-19T09:46:36.437Z,25.60
2019-02-19T09:51:26.098Z,24.34
2019-02-19T09:56:30.038Z,22.89
2019-02-19T10:01:32.252Z,22.39
2019-02-19T10:06:32.203Z,21.76
2019-02-19T10:11:39.849Z,21.44
2019-02-19T10:16:41.882Z,21.76
2019-02-19T10:21:42.634Z,22.69
2019-02-19T10:26:51.614Z,21.77
2019-02-19T10:31:56.556Z,23.12
2019-02-19T10:36:59.372Z,23.46
2019-02-19T10:42:01.657Z,29.74
2019-02-19T10:47:06.761Z,26.04
2019-02-19T10:52:09.585Z,25.42
2019-02-19T10:57:24.951Z,29.04
2019-02-19T11:02:17.560Z,30.84
2019-02-19T11:07:17.931Z,27.52
2019-02-19T11:12:34.754Z,27.30
2019-02-19T11:17:22.758Z,29.47
2019-02-19T11:22:22.625Z,31.70
2019-02-19T11:27:35.776Z,26.89
2019-02-19T11:32:38.592Z,27.56
2019-02-19T11:37:44.933Z,27.70
2019-02-19T11:42:47.265Z,26.95
2019-02-19T11:47:51.485Z,27.81
2019-02-19T11:52:53.800Z,27.95
2019-02-19T11:57:59.099Z,27.26
2019-02-19T12:03:00.423Z,28.15
2019-02-19T12:08:01.835Z,27.78
2019-02-19T12:13:12.091Z,26.57
2019-02-19T12:18:10.060Z,26.67
2019-02-19T12:23:12.785Z,26.89
2019-02-19T12:28:13.351Z,27.45
2019-02-19T12:33:15.906Z,28.75
2019-02-19T12:38:32.982Z,31.10
2019-02-19T12:43:23.541Z,28.48
2019-02-19T12:48:23.034Z,27.77
2019-02-19T12:53:35.058Z,25.98
2019-02-19T12:58:34.278Z,26.09
2019-02-19T13:03:50.798Z,25.76
2019-02-19T13:08:50.595Z,27.74
2019-02-19T13:13:52.314Z,27.14
2019-02-19T13:18:52.749Z,27.14
2019-02-19T13:23:58.871Z,26.82
2019-02-19T13:28:57.765Z,28.89
2019-02-19T13:34:18.271Z,27.81
2019-02-19T13:39:19.417Z,27.18
2019-02-19T13:44:29.207Z,26.53
2019-02-19T13:49:30.413Z,27.76
2019-02-19T13:54:29.192Z,27.13
2019-02-19T13:59:44.553Z,26.17
2019-02-19T14:04:55.939Z,27.32
2019-02-19T14:09:49.544Z,27.94
2019-02-19T14:14:51.373Z,27.76
2019-02-19T14:19:53.713Z,28.25
2019-02-19T14:24:54.672Z,28.27
2019-02-19T14:29:54.783Z,28.85
2019-02-19T14:35:07.241Z,28.50
2019-02-19T14:40:10.500Z,28.54
2019-02-19T14:45:12.344Z,28.23
2019-02-19T14:50:18.750Z,31.39
2019-02-19T14:55:40.602Z,28.74
2019-02-19T15:00:30.376Z,29.58
2019-02-19T15:05:34.210Z,30.86
2019-02-19T15:10:35.928Z,29.82
2019-02-19T15:15:36.791Z,30.74
2019-02-19T15:20:34.259Z,31.03
2019-02-19T15:25:39.382Z,34.07
2019-02-19T15:31:06.589Z,31.80
2019-02-19T15:35:53.517Z,31.31
2019-02-19T15:40:55.065Z,31.11
2019-02-19T15:46:10.971Z,33.27
2019-02-19T15:51:05.460Z,29.99
2019-02-19T15:56:17.392Z,31.76
2019-02-19T16:01:11.526Z,37.22
2019-02-19T16:06:11.532Z,31.28
2019-02-19T16:11:16.737Z,29.89
2019-02-19T16:16:18.398Z,30.84
2019-02-19T16:21:20.187Z,29.88
2019-02-19T16:26:21.122Z,30.85
2019-02-19T16:31:23.849Z,31.50
2019-02-19T16:36:26.581Z,31.09
2019-02-19T16:41:27.749Z,30.76
2019-02-19T16:46:27.831Z,31.41
2019-02-19T16:51:40.638Z,30.97
2019-02-19T16:56:48.839Z,33.08
2019-02-19T17:01:58.871Z,34.13
2019-02-19T17:06:51.066Z,29.03
2019-02-19T17:11:55.325Z,28.89
2019-02-19T17:16:57.420Z,28.11
2019-02-19T17:22:00.569Z,30.16
2019-02-19T17:27:02.203Z,29.05
2019-02-19T17:32:02.686Z,34.48
2019-02-19T17:42:10.175Z,37.67
2019-02-19T17:47:10.265Z,32.73
2019-02-19T17:52:13.509Z,32.22
2019-02-19T17:57:17.458Z,44.56
2019-02-19T18:02:27.027Z,36.81
2019-02-19T18:07:25.925Z,32.71
2019-02-19T18:12:31.833Z,31.26
2019-02-19T18:17:33.644Z,31.62
2019-02-19T18:22:44.015Z,30.27
2019-02-19T18:27:37.155Z,31.36
2019-02-19T18:32:38.752Z,30.60
2019-02-19T18:37:42.796Z,30.28
2019-02-19T18:42:43.810Z,30.43
2019-02-19T18:47:48.126Z,28.77
2019-02-19T18:52:52.955Z,29.62
2019-02-19T18:58:00.605Z,31.06
2019-02-19T19:03:02.369Z,30.11
2019-02-19T19:08:07.133Z,32.02
2019-02-19T19:13:11.793Z,32.88
2019-02-19T19:18:10.836Z,33.50
2019-02-19T19:23:18.765Z,36.20
2019-02-19T19:28:30.135Z,35.98
2019-02-19T19:33:36.508Z,29.76
2019-02-19T19:38:38.081Z,30.80
2019-02-19T19:43:42.886Z,28.99
2019-02-19T19:48:57.155Z,30.46
2019-02-19T19:53:51.108Z,30.00
2019-02-19T19:58:52.027Z,33.86
2019-02-19T20:03:54.709Z,34.22
2019-02-19T20:08:55.685Z,31.19
2019-02-19T20:14:08.823Z,34.30
2019-02-19T20:19:04.179Z,33.72
2019-02-19T20:24:02.030Z,36.43
2019-02-19T20:29:11.236Z,35.68
2019-02-19T20:34:21.044Z,34.18
2019-02-19T20:39:29.647Z,31.89
2019-02-19T20:44:39.964Z,29.40
2019-02-19T20:49:52.150Z,29.23
2019-02-19T20:54:54.196Z,31.12
2019-02-19T20:59:55.595Z,31.76
2019-02-19T21:05:05.089Z,30.53
2019-02-19T21:10:08.932Z,29.65
2019-02-19T21:15:39.165Z,29.19
2019-02-19T21:20:31.532Z,35.16
2019-02-19T21:25:31.227Z,36.51
2019-02-19T21:30:42.615Z,32.60
2019-02-19T21:35:37.564Z,35.18
2019-02-19T21:40:48.744Z,34.66
2019-02-19T21:45:57.725Z,30.84
2019-02-19T21:51:05.433Z,30.82
2019-02-19T21:56:12.335Z,29.41
2019-02-19T22:01:17.924Z,33.15
2019-02-19T22:06:21.759Z,31.17
2019-02-19T22:11:30.312Z,28.70
2019-02-19T22:16:31.815Z,28.77
2019-02-19T22:21:37.372Z,28.60
2019-02-19T22:26:39.977Z,27.36
2019-02-19T22:31:43.976Z,29.41
2019-02-19T22:36:45.391Z,28.42
2019-02-19T22:41:55.542Z,30.05
2019-02-19T22:46:54.603Z,29.27
2019-02-19T22:52:00.175Z,27.72
2019-02-19T22:57:01.443Z,27.26
2019-02-19T23:02:04.920Z,26.83
2019-02-19T23:07:04.542Z,26.55
2019-02-19T23:12:20.081Z,28.21
2019-02-19T23:17:18.816Z,29.11
2019-02-19T23:22:31.308Z,28.19
2019-02-19T23:27:31.137Z,27.62
2019-02-19T23:32:40.233Z,26.41
2019-02-19T23:37:49.997Z,26.40
2019-02-19T23:43:06.196Z,26.23
2019-02-19T23:48:07.668Z,26.22
2019-02-19T23:53:06.944Z,25.36
2019-02-19T23:58:15.413Z,25.51
